createdAt,value
2019-05-23T00:02:18.955Z,9.03
2019-05-23T00:08:26.032Z,9.24
2019-05-23T00:11:27.506Z,9.16
2019-05-23T00:14:17.997Z,9.08
2019-05-23T00:17:05.297Z,9.04
2019-05-23T00:20:06.843Z,9.00
2019-05-23T00:22:54.112Z,8.97
2019-05-23T00:28:47.360Z,8.95
2019-05-23T00:31:38.570Z,8.94
2019-05-23T00:34:25.713Z,8.93
2019-05-23T00:37:15.959Z,8.97
2019-05-23T00:40:02.940Z,9.02
2019-05-23T00:42:51.304Z,9.09
2019-05-23T00:45:38.332Z,9.16
2019-05-23T00:48:25.369Z,9.22
2019-05-23T00:51:12.138Z,9.28
2019-05-23T00:53:59.273Z,9.34
2019-05-23T00:56:46.373Z,9.40
2019-05-23T00:59:33.260Z,9.44
2019-05-23T01:02:20.376Z,9.47
2019-05-23T01:05:07.341Z,9.48
2019-05-23T01:07:54.060Z,9.48
2019-05-23T01:10:40.926Z,10.15
2019-05-23T01:13:27.676Z,9.71
2019-05-23T01:16:14.797Z,9.60
2019-05-23T01:19:01.681Z,10.16
2019-05-23T01:22:01.033Z,9.65
2019-05-23T01:24:48.309Z,9.50
2019-05-23T01:27:35.080Z,9.42
2019-05-23T01:30:30.230Z,9.38
2019-05-23T01:33:15.079Z,9.35
2019-05-23T01:36:02.882Z,9.99
2019-05-23T01:38:50.334Z,9.55
2019-05-23T01:41:37.234Z,10.15
2019-05-23T01:44:24.152Z,9.68
2019-05-23T01:47:13.214Z,10.27
2019-05-23T01:49:58.258Z,9.77
2019-05-23T01:52:45.517Z,9.68
2019-05-23T01:55:32.583Z,9.65
2019-05-23T01:58:19.824Z,9.66
2019-05-23T02:01:06.589Z,9.65
2019-05-23T02:03:53.929Z,9.65
2019-05-23T02:06:40.962Z,9.64
2019-05-23T02:09:28.073Z,9.61
2019-05-23T02:12:14.911Z,10.27
2019-05-23T02:15:02.065Z,9.79
2019-05-23T02:17:49.033Z,10.38
2019-05-23T02:20:36.252Z,9.84
2019-05-23T02:23:23.059Z,9.68
2019-05-23T02:26:10.321Z,9.58
2019-05-23T02:28:57.375Z,10.21
2019-05-23T02:31:44.655Z,9.70
2019-05-23T02:34:32.435Z,9.58
2019-05-23T02:37:28.855Z,9.54
2019-05-23T02:40:15.925Z,9.47
2019-05-23T02:43:03.292Z,9.45
2019-05-23T02:45:50.714Z,9.42
2019-05-23T02:48:44.774Z,9.40
2019-05-23T02:51:31.987Z,9.40
2019-05-23T02:54:19.712Z,9.40
2019-05-23T02:57:06.960Z,10.11
2019-05-23T02:59:53.743Z,9.66
2019-05-23T03:02:56.769Z,9.57
2019-05-23T03:05:43.955Z,9.52
2019-05-23T03:08:31.071Z,9.49
2019-05-23T03:11:31.013Z,9.46
2019-05-23T03:14:17.588Z,9.43
2019-05-23T03:17:04.996Z,9.42
2019-05-23T03:22:58.416Z,9.35
2019-05-23T03:26:00.819Z,9.34
2019-05-23T03:28:48.574Z,9.33
2019-05-23T03:31:35.712Z,9.32
2019-05-23T03:34:22.501Z,10.02
2019-05-23T03:37:09.405Z,9.59
2019-05-23T03:39:56.538Z,9.52
2019-05-23T03:42:43.259Z,9.51
2019-05-23T03:45:33.442Z,10.22
2019-05-23T03:48:23.275Z,9.72
2019-05-23T03:51:10.042Z,9.65
2019-05-23T03:53:57.233Z,9.65
2019-05-23T03:56:43.965Z,9.67
2019-05-23T04:02:39.774Z,9.75
2019-05-23T04:05:26.771Z,9.84
2019-05-23T04:08:13.851Z,9.90
2019-05-23T04:11:01.073Z,9.98
2019-05-23T04:13:48.319Z,10.09
2019-05-23T04:16:35.611Z,10.20
2019-05-23T04:19:22.813Z,10.32
2019-05-23T04:22:10.489Z,10.43
2019-05-23T04:25:01.679Z,10.54
2019-05-23T04:27:44.222Z,10.62
2019-05-23T04:30:31.423Z,10.71
2019-05-23T04:33:18.846Z,10.78
2019-05-23T04:36:06.513Z,10.82
2019-05-23T04:39:07.761Z,11.69
2019-05-23T04:41:54.741Z,11.21
2019-05-23T04:44:44.436Z,11.18
2019-05-23T04:47:28.809Z,11.21
2019-05-23T04:50:15.621Z,11.25
2019-05-23T04:53:02.807Z,11.29
2019-05-23T04:55:49.608Z,12.14
2019-05-23T04:58:36.251Z,11.71
2019-05-23T05:01:23.435Z,11.71
2019-05-23T05:04:10.350Z,11.77
2019-05-23T05:06:57.599Z,11.87
2019-05-23T05:09:44.509Z,11.96
2019-05-23T05:12:31.903Z,12.03
2019-05-23T05:15:19.361Z,12.11
2019-05-23T05:18:08.925Z,12.20
2019-05-23T05:20:56.501Z,12.29
2019-05-23T05:23:43.707Z,12.39
2019-05-23T05:26:30.933Z,12.46
2019-05-23T05:29:19.047Z,12.54
2019-05-23T05:32:06.199Z,12.62
2019-05-23T05:34:52.992Z,12.71
2019-05-23T05:37:40.518Z,12.78
2019-05-23T05:40:27.840Z,12.83
2019-05-23T05:43:14.751Z,12.94
2019-05-23T05:46:02.256Z,13.77
2019-05-23T05:49:03.706Z,13.44
2019-05-23T05:51:51.677Z,13.50
2019-05-23T05:54:39.037Z,13.61
2019-05-23T06:00:37.344Z,13.96
2019-05-23T06:03:24.236Z,14.12
2019-05-23T06:06:11.727Z,14.16
2019-05-23T06:09:03.702Z,14.20
2019-05-23T06:11:51.157Z,14.25
2019-05-23T06:14:38.114Z,14.46
2019-05-23T06:17:25.249Z,14.61
2019-05-23T06:20:11.991Z,14.62
2019-05-23T06:22:59.203Z,14.75
2019-05-23T06:25:49.384Z,14.91
2019-05-23T06:28:36.190Z,15.05
2019-05-23T06:31:23.331Z,15.29
2019-05-23T06:34:10.211Z,15.48
2019-05-23T06:36:56.974Z,15.65
2019-05-23T06:39:44.244Z,15.85
2019-05-23T06:42:31.937Z,16.07
2019-05-23T06:45:18.898Z,16.25
2019-05-23T06:48:05.998Z,16.42
2019-05-23T06:50:53.197Z,16.55
2019-05-23T06:53:40.389Z,17.59
2019-05-23T06:56:27.465Z,18.05
2019-05-23T06:59:14.789Z,17.46
2019-05-23T07:02:02.018Z,17.54
2019-05-23T07:04:49.431Z,17.63
2019-05-23T07:07:36.433Z,17.64
2019-05-23T07:10:24.631Z,18.80
2019-05-23T07:16:17.703Z,18.36
2019-05-23T07:19:04.494Z,19.07
2019-05-23T07:21:51.739Z,18.02
2019-05-23T07:24:55.188Z,17.98
2019-05-23T07:27:25.810Z,18.02
2019-05-23T07:30:24.679Z,18.19
2019-05-23T07:33:11.592Z,18.22
2019-05-23T07:35:58.355Z,18.30
2019-05-23T07:38:45.125Z,18.32
2019-05-23T07:41:32.561Z,18.55
2019-05-23T07:44:19.348Z,18.73
2019-05-23T07:47:06.083Z,18.81
2019-05-23T07:49:52.856Z,19.01
2019-05-23T07:52:39.578Z,19.15
2019-05-23T07:55:27.084Z,19.03
2019-05-23T07:58:14.392Z,19.15
2019-05-23T08:01:07.738Z,19.45
2019-05-23T08:03:54.534Z,19.62
2019-05-23T08:06:41.622Z,20.99
2019-05-23T08:09:30.016Z,20.27
2019-05-23T08:12:17.152Z,20.21
2019-05-23T08:15:04.100Z,20.34
2019-05-23T08:17:51.185Z,20.39
2019-05-23T08:20:38.351Z,20.51
2019-05-23T08:23:26.029Z,20.28
2019-05-23T08:26:13.341Z,21.09
2019-05-23T08:29:24.071Z,19.95
2019-05-23T08:31:47.491Z,19.87
2019-05-23T08:34:41.634Z,20.07
2019-05-23T08:37:21.709Z,20.38
2019-05-23T08:40:08.779Z,21.77
2019-05-23T08:42:56.043Z,21.13
2019-05-23T08:45:43.364Z,21.04
2019-05-23T08:48:31.587Z,21.07
2019-05-23T08:51:18.740Z,21.18
2019-05-23T08:54:05.735Z,20.85
2019-05-23T08:56:52.544Z,20.62
2019-05-23T08:59:39.764Z,20.55
2019-05-23T09:02:27.169Z,20.79
2019-05-23T09:05:14.012Z,20.89
2019-05-23T09:08:00.806Z,21.22
2019-05-23T09:10:48.440Z,21.40
2019-05-23T09:13:36.182Z,22.62
2019-05-23T09:16:22.977Z,21.77
2019-05-23T09:19:09.875Z,21.72
2019-05-23T09:22:06.421Z,21.95
2019-05-23T09:24:53.696Z,22.16
2019-05-23T09:27:40.850Z,22.03
2019-05-23T09:30:28.882Z,21.89
2019-05-23T09:33:15.659Z,21.96
2019-05-23T09:36:02.322Z,22.23
2019-05-23T09:38:49.165Z,22.33
2019-05-23T09:41:36.246Z,23.84
2019-05-23T09:44:24.243Z,22.73
2019-05-23T09:47:11.908Z,24.00
2019-05-23T09:49:59.453Z,23.98
2019-05-23T09:52:46.034Z,24.11
2019-05-23T09:55:33.168Z,23.04
2019-05-23T09:58:20.460Z,24.07
2019-05-23T10:01:07.246Z,22.71
2019-05-23T10:03:53.952Z,22.53
2019-05-23T10:06:41.288Z,22.47
2019-05-23T10:09:28.715Z,22.43
2019-05-23T10:12:15.730Z,22.42
2019-05-23T10:15:03.009Z,22.60
2019-05-23T10:17:49.588Z,22.60
2019-05-23T10:20:36.778Z,23.84
2019-05-23T10:23:23.770Z,22.63
2019-05-23T10:26:11.265Z,22.12
2019-05-23T10:28:57.935Z,21.97
2019-05-23T10:31:44.986Z,21.89
2019-05-23T10:34:31.897Z,21.92
2019-05-23T10:37:18.723Z,23.48
2019-05-23T10:40:05.779Z,22.75
2019-05-23T10:42:53.368Z,22.44
2019-05-23T10:45:40.953Z,22.30
2019-05-23T10:48:28.322Z,22.13
2019-05-23T10:51:15.264Z,21.99
2019-05-23T10:54:02.566Z,22.06
2019-05-23T10:56:49.393Z,22.33
2019-05-23T10:59:50.610Z,22.58
2019-05-23T11:02:37.626Z,22.80
2019-05-23T11:05:25.669Z,22.71
2019-05-23T11:08:12.393Z,22.71
2019-05-23T11:10:59.554Z,22.78
2019-05-23T11:13:46.706Z,22.77
2019-05-23T11:16:34.853Z,22.75
2019-05-23T11:19:22.479Z,22.74
2019-05-23T11:22:09.446Z,22.83
2019-05-23T11:24:56.100Z,22.83
2019-05-23T11:27:42.938Z,22.87
2019-05-23T11:30:32.686Z,24.10
2019-05-23T11:33:20.236Z,23.17
2019-05-23T11:36:07.057Z,24.31
2019-05-23T11:42:00.415Z,23.14
2019-05-23T11:45:06.063Z,23.04
2019-05-23T11:47:53.312Z,23.06
2019-05-23T11:50:40.450Z,22.96
2019-05-23T11:53:27.690Z,22.91
2019-05-23T11:56:15.119Z,23.06
2019-05-23T11:59:02.189Z,23.19
2019-05-23T12:01:57.688Z,23.17
2019-05-23T12:07:50.381Z,23.18
2019-05-23T12:10:37.696Z,23.19
2019-05-23T12:13:24.439Z,23.03
2019-05-23T12:16:11.830Z,23.11
2019-05-23T12:18:58.550Z,23.17
2019-05-23T12:21:45.304Z,24.33
2019-05-23T12:24:35.455Z,23.49
2019-05-23T12:27:20.048Z,23.57
2019-05-23T12:30:07.063Z,24.73
2019-05-23T12:32:54.376Z,23.61
2019-05-23T12:35:41.444Z,23.56
2019-05-23T12:38:28.268Z,23.53
2019-05-23T12:41:15.489Z,23.49
2019-05-23T12:44:03.005Z,23.55
2019-05-23T12:46:51.515Z,24.76
2019-05-23T12:49:38.864Z,23.84
2019-05-23T12:52:26.109Z,23.71
2019-05-23T12:55:28.054Z,23.55
2019-05-23T12:58:15.057Z,23.68
2019-05-23T13:01:01.968Z,23.88
2019-05-23T13:03:49.269Z,23.70
2019-05-23T13:06:35.977Z,23.84
2019-05-23T13:09:23.219Z,23.92
2019-05-23T13:12:10.398Z,23.90
2019-05-23T13:14:58.826Z,25.10
2019-05-23T13:17:43.959Z,24.31
2019-05-23T13:20:31.040Z,24.44
2019-05-23T13:23:21.112Z,24.62
2019-05-23T13:26:05.025Z,24.83
2019-05-23T13:28:52.179Z,24.79
2019-05-23T13:31:39.518Z,24.59
2019-05-23T13:34:26.198Z,24.67
2019-05-23T13:37:16.795Z,24.63
2019-05-23T13:40:00.508Z,24.75
2019-05-23T13:42:47.650Z,24.87
2019-05-23T13:45:34.382Z,24.84
2019-05-23T13:48:21.213Z,24.79
2019-05-23T13:51:08.508Z,25.00
2019-05-23T13:53:55.804Z,24.85
2019-05-23T13:56:47.343Z,24.82
2019-05-23T13:59:29.957Z,24.78
2019-05-23T14:02:17.131Z,24.74
2019-05-23T14:05:03.783Z,24.83
2019-05-23T14:07:50.928Z,25.00
2019-05-23T14:10:37.710Z,26.08
2019-05-23T14:13:25.658Z,25.30
2019-05-23T14:16:12.236Z,25.20
2019-05-23T14:18:59.462Z,24.94
2019-05-23T14:21:46.290Z,24.86
2019-05-23T14:24:37.293Z,25.96
2019-05-23T14:27:33.620Z,25.46
2019-05-23T14:30:38.539Z,25.23
2019-05-23T14:33:26.336Z,25.19
2019-05-23T14:36:32.491Z,25.27
2019-05-23T14:39:21.177Z,25.36
2019-05-23T14:42:08.770Z,26.34
2019-05-23T14:44:55.474Z,25.80
2019-05-23T14:47:42.948Z,25.97
2019-05-23T14:50:36.210Z,27.58
2019-05-23T14:53:23.095Z,27.06
2019-05-23T14:56:10.132Z,27.30
2019-05-23T14:58:56.905Z,27.47
2019-05-23T15:01:44.128Z,27.89
2019-05-23T15:04:31.277Z,28.51
2019-05-23T15:07:18.053Z,28.71
2019-05-23T15:10:07.995Z,28.94
2019-05-23T15:12:55.059Z,28.95
2019-05-23T15:15:42.678Z,28.86
2019-05-23T15:18:30.111Z,28.55
2019-05-23T15:21:17.343Z,28.83
2019-05-23T15:24:04.452Z,28.83
2019-05-23T15:26:51.587Z,28.99
2019-05-23T15:29:38.371Z,30.42
2019-05-23T15:32:25.457Z,29.96
2019-05-23T15:35:12.403Z,30.17
2019-05-23T15:38:02.416Z,29.97
2019-05-23T15:40:49.536Z,31.31
2019-05-23T15:43:37.342Z,30.85
2019-05-23T15:46:24.357Z,30.94
2019-05-23T15:49:11.022Z,30.71
2019-05-23T15:52:10.525Z,30.50
2019-05-23T15:54:57.338Z,30.33
2019-05-23T15:57:50.615Z,30.47
2019-05-23T16:00:46.735Z,30.46
2019-05-23T16:03:33.868Z,30.56
2019-05-23T16:06:24.165Z,30.64
2019-05-23T16:09:28.795Z,30.76
2019-05-23T16:12:01.341Z,30.88
2019-05-23T16:14:48.575Z,31.22
2019-05-23T16:17:35.644Z,31.16
2019-05-23T16:20:22.660Z,31.19
2019-05-23T16:23:09.794Z,31.31
2019-05-23T16:25:57.103Z,31.27
2019-05-23T16:28:44.321Z,30.91
2019-05-23T16:31:31.748Z,30.53
2019-05-23T16:34:18.897Z,30.28
2019-05-23T16:37:05.770Z,29.84
2019-05-23T16:39:52.911Z,29.48
2019-05-23T16:42:40.043Z,29.10
2019-05-23T16:45:26.997Z,29.18
2019-05-23T16:48:14.167Z,29.53
2019-05-23T16:51:01.329Z,29.60
2019-05-23T16:53:48.512Z,30.08
2019-05-23T16:56:38.079Z,32.05
2019-05-23T16:59:30.931Z,30.49
2019-05-23T17:02:17.983Z,30.08
2019-05-23T17:05:09.814Z,30.11
2019-05-23T17:07:51.954Z,29.54
2019-05-23T17:10:41.305Z,28.63
2019-05-23T17:13:29.180Z,27.92
2019-05-23T17:16:30.092Z,27.31
2019-05-23T17:19:18.324Z,27.29
2019-05-23T17:22:20.752Z,27.43
2019-05-23T17:25:19.701Z,28.04
2019-05-23T17:28:12.846Z,28.51
2019-05-23T17:30:59.704Z,29.05
2019-05-23T17:33:47.068Z,31.35
2019-05-23T17:36:34.214Z,30.18
2019-05-23T17:39:21.510Z,30.27
2019-05-23T17:42:09.651Z,30.27
2019-05-23T17:44:56.481Z,30.26
2019-05-23T17:47:43.385Z,30.16
2019-05-23T17:50:34.369Z,29.59
2019-05-23T17:53:17.689Z,29.04
2019-05-23T17:56:04.447Z,28.38
2019-05-23T17:58:52.721Z,29.33
2019-05-23T18:01:40.119Z,27.55
2019-05-23T18:04:26.824Z,28.19
2019-05-23T18:07:13.761Z,26.62
2019-05-23T18:10:01.481Z,25.98
2019-05-23T18:12:48.518Z,25.44
2019-05-23T18:15:35.203Z,24.83
2019-05-23T18:18:25.901Z,24.23
2019-05-23T18:21:12.853Z,23.71
2019-05-23T18:24:00.258Z,23.25
2019-05-23T18:26:57.639Z,22.83
2019-05-23T18:29:44.680Z,22.42
2019-05-23T18:32:31.918Z,23.26
2019-05-23T18:35:19.795Z,22.03
2019-05-23T18:38:06.768Z,21.55
2019-05-23T18:41:09.583Z,21.20
2019-05-23T18:44:03.465Z,20.85
2019-05-23T18:46:53.840Z,20.55
2019-05-23T18:49:43.716Z,21.34
2019-05-23T18:52:30.309Z,20.31
2019-05-23T18:55:17.098Z,19.95
2019-05-23T18:58:04.702Z,19.67
2019-05-23T19:04:00.251Z,19.15
2019-05-23T19:06:48.181Z,18.94
2019-05-23T19:09:35.518Z,19.65
2019-05-23T19:12:22.263Z,18.78
2019-05-23T19:15:09.735Z,19.36
2019-05-23T19:17:56.560Z,18.49
2019-05-23T19:20:43.537Z,18.18
2019-05-23T19:23:30.591Z,17.97
2019-05-23T19:26:17.732Z,17.78
2019-05-23T19:29:07.619Z,17.61
2019-05-23T19:31:54.479Z,17.41
2019-05-23T19:34:41.506Z,17.19
2019-05-23T19:37:28.532Z,17.01
2019-05-23T19:40:15.562Z,16.80
2019-05-23T19:43:02.645Z,16.59
2019-05-23T19:45:49.848Z,16.42
2019-05-23T19:48:37.398Z,17.17
2019-05-23T19:51:24.186Z,16.47
2019-05-23T19:54:11.111Z,16.27
2019-05-23T19:57:12.514Z,16.12
2019-05-23T19:59:59.276Z,15.94
2019-05-23T20:02:55.105Z,15.80
2019-05-23T20:05:50.057Z,15.68
2019-05-23T20:08:38.196Z,15.62
2019-05-23T20:11:26.026Z,15.58
2019-05-23T20:14:12.775Z,15.51
2019-05-23T20:17:00.026Z,15.41
2019-05-23T20:19:50.265Z,15.33
2019-05-23T20:22:34.752Z,15.26
2019-05-23T20:25:21.522Z,15.17
2019-05-23T20:28:08.287Z,15.03
2019-05-23T20:30:55.016Z,14.88
2019-05-23T20:33:41.958Z,15.52
2019-05-23T20:36:29.264Z,14.85
2019-05-23T20:39:16.296Z,15.49
2019-05-23T20:42:11.579Z,14.78
2019-05-23T20:44:50.031Z,15.37
2019-05-23T20:47:44.071Z,14.63
2019-05-23T20:50:38.481Z,15.26
2019-05-23T20:53:25.452Z,14.52
2019-05-23T20:56:12.192Z,14.30
2019-05-23T20:58:59.321Z,14.14
2019-05-23T21:01:46.114Z,14.82
2019-05-23T21:04:33.298Z,14.15
2019-05-23T21:07:20.637Z,13.96
2019-05-23T21:10:07.335Z,13.86
2019-05-23T21:12:54.412Z,13.72
2019-05-23T21:15:41.628Z,13.57
2019-05-23T21:18:28.988Z,14.25
2019-05-23T21:21:15.786Z,13.59
2019-05-23T21:24:05.820Z,13.40
2019-05-23T21:26:53.321Z,13.24
2019-05-23T21:29:42.994Z,13.12
2019-05-23T21:35:36.230Z,12.92
2019-05-23T21:38:23.250Z,12.81
2019-05-23T21:41:10.752Z,12.70
2019-05-23T21:43:57.821Z,12.61
2019-05-23T21:46:44.777Z,12.51
2019-05-23T21:49:32.141Z,12.42
2019-05-23T21:52:19.237Z,12.35
2019-05-23T21:55:08.994Z,12.29
2019-05-23T22:01:12.473Z,12.14
2019-05-23T22:04:11.451Z,12.06
2019-05-23T22:06:58.748Z,12.01
2019-05-23T22:09:45.970Z,12.02
2019-05-23T22:12:32.737Z,12.00
2019-05-23T22:15:19.645Z,12.00
2019-05-23T22:21:12.297Z,11.90
2019-05-23T22:23:58.928Z,12.60
2019-05-23T22:26:46.149Z,12.05
2019-05-23T22:29:33.822Z,11.86
2019-05-23T22:32:24.057Z,11.71
2019-05-23T22:35:11.124Z,11.59
2019-05-23T22:37:57.777Z,11.52
2019-05-23T22:40:44.663Z,11.43
2019-05-23T22:43:31.417Z,11.34
2019-05-23T22:46:18.824Z,11.28
2019-05-23T22:49:05.660Z,11.21
2019-05-23T22:51:52.743Z,11.17
2019-05-23T22:54:39.600Z,11.14
2019-05-23T22:57:26.582Z,11.11
2019-05-23T23:00:13.247Z,11.08
2019-05-23T23:06:06.121Z,11.85
2019-05-23T23:08:54.067Z,11.33
2019-05-23T23:11:41.121Z,11.20
2019-05-23T23:14:27.805Z,11.06
2019-05-23T23:17:28.905Z,10.94
2019-05-23T23:20:15.957Z,11.64
2019-05-23T23:23:03.236Z,11.04
2019-05-23T23:25:50.720Z,11.66
2019-05-23T23:31:43.844Z,10.87
2019-05-23T23:37:38.441Z,10.72
2019-05-23T23:40:25.542Z,10.65
2019-05-23T23:43:13.109Z,10.60
2019-05-23T23:46:18.456Z,10.57
2019-05-23T23:49:24.137Z,10.54
2019-05-23T23:52:29.098Z,11.27
2019-05-23T23:55:35.948Z,10.71
2019-05-23T23:58:22.472Z,10.57
